createdAt,value
2018-04-01T00:00:28.180Z,31.30
2018-04-01T00:02:55.027Z,33.53
2018-04-01T00:05:21.875Z,32.20
2018-04-01T00:07:48.733Z,31.27
2018-04-01T00:10:15.584Z,31.57
2018-04-01T00:12:42.459Z,31.67
2018-04-01T00:15:09.309Z,32.30
2018-04-01T00:17:36.163Z,30.20
2018-04-01T00:20:03.015Z,31.30
2018-04-01T00:22:29.874Z,29.57
2018-04-01T00:24:56.718Z,31.70
2018-04-01T00:27:23.606Z,28.13
2018-04-01T00:29:50.566Z,27.20
2018-04-01T00:32:17.423Z,25.73
2018-04-01T00:34:44.284Z,26.20
2018-04-01T00:37:11.142Z,22.27
2018-04-01T00:39:37.987Z,22.00
2018-04-01T00:42:04.863Z,21.53
2018-04-01T00:44:31.714Z,21.77
2018-04-01T00:46:58.630Z,21.07
2018-04-01T00:49:25.502Z,22.50
2018-04-01T00:51:52.335Z,21.40
2018-04-01T00:54:19.191Z,21.90
2018-04-01T00:56:46.043Z,23.27
2018-04-01T00:59:12.915Z,25.40
2018-04-01T01:01:39.771Z,21.37
2018-04-01T01:04:06.626Z,20.40
2018-04-01T01:06:33.479Z,20.40
2018-04-01T01:09:00.331Z,20.47
2018-04-01T01:11:27.186Z,23.70
2018-04-01T01:13:54.038Z,25.00
2018-04-01T01:16:20.895Z,23.47
2018-04-01T01:18:47.858Z,23.17
2018-04-01T01:21:14.702Z,24.00
2018-04-01T01:23:41.568Z,23.10
2018-04-01T01:26:08.487Z,24.10
2018-04-01T01:28:35.440Z,23.77
2018-04-01T01:31:02.285Z,23.55
2018-04-01T01:33:29.218Z,23.00
2018-04-01T01:35:56.071Z,25.40
2018-04-01T01:38:22.943Z,24.70
2018-04-01T01:40:49.823Z,24.10
2018-04-01T01:43:16.680Z,23.23
2018-04-01T01:45:43.534Z,24.60
2018-04-01T01:48:10.401Z,24.67
2018-04-01T01:50:37.238Z,25.30
2018-04-01T01:53:04.107Z,25.03
2018-04-01T01:55:30.959Z,25.30
2018-04-01T01:57:57.833Z,22.57
2018-04-01T02:00:24.680Z,22.80
2018-04-01T02:02:51.537Z,23.30
2018-04-01T02:05:18.383Z,21.37
2018-04-01T02:07:45.235Z,22.70
2018-04-01T02:10:12.078Z,23.60
2018-04-01T02:12:38.990Z,23.93
2018-04-01T02:15:05.840Z,24.47
2018-04-01T02:17:32.696Z,23.63
2018-04-01T02:19:59.618Z,24.73
2018-04-01T02:22:26.468Z,23.23
2018-04-01T02:24:53.319Z,22.80
2018-04-01T02:27:20.171Z,23.27
2018-04-01T02:29:47.058Z,21.87
2018-04-01T02:32:13.911Z,23.37
2018-04-01T02:34:40.791Z,23.10
2018-04-01T02:37:07.635Z,25.03
2018-04-01T02:39:34.483Z,22.50
2018-04-01T02:42:01.332Z,22.87
2018-04-01T02:44:28.836Z,22.30
2018-04-01T02:46:55.683Z,21.80
2018-04-01T02:49:22.546Z,21.37
2018-04-01T02:51:49.403Z,21.23
2018-04-01T02:54:16.248Z,22.00
2018-04-01T02:56:43.102Z,21.90
2018-04-01T02:59:10.015Z,21.23
2018-04-01T03:01:36.873Z,20.30
2018-04-01T03:04:03.723Z,20.10
2018-04-01T03:06:30.581Z,19.87
2018-04-01T03:08:57.431Z,21.43
2018-04-01T03:11:24.279Z,20.13
2018-04-01T03:13:51.143Z,21.57
2018-04-01T03:16:18.025Z,21.10
2018-04-01T03:18:44.883Z,21.67
2018-04-01T03:21:11.743Z,21.37
2018-04-01T03:23:38.602Z,21.90
2018-04-01T03:26:05.462Z,21.33
2018-04-01T03:28:32.542Z,20.80
2018-04-01T03:30:59.473Z,19.77
2018-04-01T03:33:26.328Z,19.20
2018-04-01T03:35:53.175Z,20.10
2018-04-01T03:38:20.027Z,20.93
2018-04-01T03:40:46.933Z,22.23
2018-04-01T03:43:13.801Z,20.57
2018-04-01T03:45:40.662Z,18.23
2018-04-01T03:48:07.523Z,20.10
2018-04-01T03:50:34.370Z,19.20
2018-04-01T03:53:01.235Z,17.80
2018-04-01T03:55:28.078Z,18.80
2018-04-01T03:57:54.990Z,19.00
2018-04-01T04:00:21.881Z,19.50
2018-04-01T04:02:48.699Z,18.37
2018-04-01T04:05:15.566Z,18.20
2018-04-01T04:07:42.418Z,19.93
2018-04-01T04:10:09.279Z,18.67
2018-04-01T04:12:36.132Z,18.73
2018-04-01T04:15:03.400Z,20.93
2018-04-01T04:17:30.301Z,19.50
2018-04-01T04:19:57.111Z,18.20
2018-04-01T04:22:23.958Z,18.63
2018-04-01T04:24:50.887Z,18.73
2018-04-01T04:27:17.743Z,16.33
2018-04-01T04:29:45.503Z,15.10
2018-04-01T04:32:12.357Z,16.87
2018-04-01T04:34:39.219Z,16.73
2018-04-01T04:37:06.108Z,17.07
2018-04-01T04:39:32.962Z,18.87
2018-04-01T04:41:59.816Z,17.83
2018-04-01T04:44:26.702Z,15.73
2018-04-01T04:46:53.571Z,17.17
2018-04-01T04:49:20.434Z,15.87
2018-04-01T04:51:47.283Z,16.53
2018-04-01T04:54:14.144Z,15.90
2018-04-01T04:56:40.995Z,16.53
2018-04-01T04:59:07.850Z,17.47
2018-04-01T05:01:34.726Z,16.10
2018-04-01T05:04:01.588Z,15.70
2018-04-01T05:06:28.435Z,16.40
2018-04-01T05:08:55.283Z,18.50
2018-04-01T05:11:22.134Z,16.23
2018-04-01T05:13:48.982Z,16.50
2018-04-01T05:16:15.879Z,17.13
2018-04-01T05:18:42.743Z,17.30
2018-04-01T05:21:09.588Z,18.00
2018-04-01T05:23:36.446Z,18.57
2018-04-01T05:26:03.295Z,17.40
2018-04-01T05:28:30.182Z,19.60
2018-04-01T05:30:57.135Z,18.50
2018-04-01T05:33:24.070Z,17.80
2018-04-01T05:35:51.039Z,19.70
2018-04-01T05:38:17.889Z,19.67
2018-04-01T05:40:44.753Z,18.40
2018-04-01T05:43:11.599Z,17.50
2018-04-01T05:45:38.459Z,18.60
2018-04-01T05:48:05.302Z,18.03
2018-04-01T05:50:32.231Z,19.40
2018-04-01T05:52:59.100Z,16.57
2018-04-01T05:55:25.963Z,15.50
2018-04-01T05:57:52.813Z,17.70
2018-04-01T06:00:19.698Z,17.83
2018-04-01T06:02:46.549Z,17.63
2018-04-01T06:05:14.353Z,17.00
2018-04-01T06:07:41.211Z,16.53
2018-04-01T06:10:08.058Z,16.83
2018-04-01T06:12:34.943Z,18.47
2018-04-01T06:15:02.058Z,16.37
2018-04-01T06:17:28.986Z,16.83
2018-04-01T06:19:55.930Z,14.07
2018-04-01T06:22:22.775Z,12.93
2018-04-01T06:24:49.635Z,13.77
2018-04-01T06:27:16.486Z,14.80
2018-04-01T06:29:43.402Z,14.57
2018-04-01T06:32:10.269Z,14.63
2018-04-01T06:34:37.113Z,15.93
2018-04-01T06:37:03.964Z,16.63
2018-04-01T06:39:30.818Z,15.73
2018-04-01T06:41:57.743Z,15.00
2018-04-01T06:44:24.599Z,16.23
2018-04-01T06:46:51.476Z,15.60
2018-04-01T06:49:18.330Z,13.67
2018-04-01T06:51:45.242Z,14.30
2018-04-01T06:54:12.095Z,15.67
2018-04-01T06:56:38.942Z,14.77
2018-04-01T06:59:05.795Z,15.17
2018-04-01T07:01:32.648Z,13.77
2018-04-01T07:03:59.498Z,14.73
2018-04-01T07:06:26.347Z,13.30
2018-04-01T07:08:53.206Z,13.37
2018-04-01T07:11:20.055Z,13.30
2018-04-01T07:13:46.894Z,13.23
2018-04-01T07:16:13.756Z,12.70
2018-04-01T07:18:40.599Z,13.60
2018-04-01T07:21:07.558Z,12.20
2018-04-01T07:23:34.407Z,13.53
2018-04-01T07:26:01.259Z,14.30
2018-04-01T07:28:28.102Z,14.30
2018-04-01T07:30:54.959Z,14.60
2018-04-01T07:33:21.869Z,14.40
2018-04-01T07:35:48.723Z,14.27
2018-04-01T07:38:15.571Z,14.40
2018-04-01T07:40:42.444Z,14.10
2018-04-01T07:43:09.295Z,13.77
2018-04-01T07:45:36.179Z,15.10
2018-04-01T07:48:03.035Z,13.00
2018-04-01T07:50:29.885Z,14.20
2018-04-01T07:52:56.738Z,12.20
2018-04-01T07:55:23.599Z,11.10
2018-04-01T07:57:50.449Z,12.30
2018-04-01T08:00:17.333Z,12.00
2018-04-01T08:02:44.183Z,11.60
2018-04-01T08:05:11.041Z,11.73
2018-04-01T08:07:37.887Z,11.37
2018-04-01T08:10:04.819Z,11.67
2018-04-01T08:12:31.663Z,12.50
2018-04-01T08:14:58.544Z,11.13
2018-04-01T08:17:25.362Z,11.53
2018-04-01T08:19:52.244Z,11.90
2018-04-01T08:22:19.095Z,12.50
2018-04-01T08:24:45.983Z,12.03
2018-04-01T08:27:12.831Z,12.60
2018-04-01T08:29:39.719Z,11.83
2018-04-01T08:32:06.634Z,12.93
2018-04-01T08:34:33.511Z,12.00
2018-04-01T08:37:00.422Z,12.30
2018-04-01T08:39:27.281Z,13.30
2018-04-01T08:41:54.214Z,11.97
2018-04-01T08:44:21.155Z,11.10
2018-04-01T08:46:47.998Z,10.90
2018-04-01T08:49:14.854Z,11.23
2018-04-01T08:51:41.783Z,11.00
2018-04-01T08:54:08.727Z,11.70
2018-04-01T08:56:35.647Z,11.10
2018-04-01T08:59:02.515Z,10.97
2018-04-01T09:01:29.459Z,11.15
2018-04-01T09:03:56.400Z,10.23
2018-04-01T09:06:23.367Z,10.97
2018-04-01T09:08:50.201Z,9.97
2018-04-01T09:11:17.050Z,10.60
2018-04-01T09:13:43.970Z,10.73
2018-04-01T09:16:10.844Z,10.13
2018-04-01T09:18:37.683Z,9.33
2018-04-01T09:21:04.538Z,10.13
2018-04-01T09:23:31.455Z,9.87
2018-04-01T09:25:58.382Z,8.60
2018-04-01T09:28:25.242Z,8.80
2018-04-01T09:30:52.196Z,8.53
2018-04-01T09:33:19.028Z,7.97
2018-04-01T09:35:46.827Z,7.83
2018-04-01T09:38:13.674Z,7.80
2018-04-01T09:40:40.519Z,8.17
2018-04-01T09:43:07.378Z,7.67
2018-04-01T09:45:34.340Z,8.03
2018-04-01T09:48:01.163Z,8.20
2018-04-01T09:50:28.014Z,7.90
2018-04-01T09:52:54.859Z,7.63
2018-04-01T09:55:21.714Z,7.73
2018-04-01T09:57:48.546Z,7.57
2018-04-01T10:00:21.106Z,7.80
2018-04-01T10:02:48.498Z,7.70
2018-04-01T10:05:16.808Z,8.00
2018-04-01T10:07:44.183Z,7.43
2018-04-01T10:10:11.620Z,7.87
2018-04-01T10:12:39.026Z,8.73
2018-04-01T10:15:06.445Z,8.43
2018-04-01T10:17:33.838Z,7.40
2018-04-01T10:20:01.248Z,9.47
2018-04-01T10:22:28.698Z,8.80
2018-04-01T10:24:56.074Z,8.00
2018-04-01T10:27:23.454Z,7.63
2018-04-01T10:29:50.835Z,8.57
2018-04-01T10:32:18.325Z,7.67
2018-04-01T10:34:45.702Z,8.77
2018-04-01T10:37:13.082Z,8.90
2018-04-01T10:39:40.482Z,8.33
2018-04-01T10:42:07.870Z,7.77
2018-04-01T10:44:35.251Z,7.70
2018-04-01T10:47:02.648Z,7.13
2018-04-01T10:49:30.029Z,7.97
2018-04-01T10:51:57.410Z,7.40
2018-04-01T10:54:24.250Z,7.87
2018-04-01T10:59:22.096Z,7.97
2018-04-01T11:01:48.938Z,7.93
2018-04-01T11:04:15.780Z,7.23
2018-04-01T11:06:42.623Z,8.10
2018-04-01T11:09:09.530Z,7.63
2018-04-01T11:11:36.366Z,7.83
2018-04-01T11:14:03.239Z,9.07
2018-04-01T11:16:30.080Z,9.03
2018-04-01T11:18:57.022Z,8.23
2018-04-01T11:21:23.865Z,9.43
2018-04-01T11:23:50.722Z,9.33
2018-04-01T11:26:17.566Z,8.13
2018-04-01T11:28:44.495Z,8.23
2018-04-01T11:31:11.351Z,8.25
2018-04-01T11:33:38.195Z,9.07
2018-04-01T11:36:05.045Z,9.47
2018-04-01T11:38:31.893Z,8.57
2018-04-01T11:40:58.734Z,8.13
2018-04-01T11:43:25.582Z,8.53
2018-04-01T11:45:52.486Z,9.70
2018-04-01T11:48:19.335Z,9.00
2018-04-01T11:50:46.186Z,10.13
2018-04-01T11:53:13.123Z,11.50
2018-04-01T11:55:39.977Z,9.43
2018-04-01T11:58:06.819Z,9.33
2018-04-01T12:00:33.671Z,9.20
2018-04-01T12:03:00.608Z,9.73
2018-04-01T12:05:27.536Z,9.80
2018-04-01T12:07:54.374Z,8.10
2018-04-01T12:10:21.324Z,9.70
2018-04-01T12:12:48.266Z,9.67
2018-04-01T12:15:15.122Z,8.50
2018-04-01T12:17:42.015Z,10.07
2018-04-01T12:20:08.886Z,8.83
2018-04-01T12:22:35.711Z,9.10
2018-04-01T12:25:02.652Z,8.77
2018-04-01T12:27:29.590Z,8.90
2018-04-01T12:29:56.443Z,9.87
2018-04-01T12:32:23.290Z,8.45
2018-04-01T12:34:50.154Z,8.63
2018-04-01T12:37:17.006Z,8.00
2018-04-01T12:39:43.850Z,8.23
2018-04-01T12:42:10.691Z,8.10
2018-04-01T12:44:37.563Z,8.20
2018-04-01T12:47:04.422Z,9.20
2018-04-01T12:49:31.362Z,9.30
2018-04-01T12:51:58.225Z,10.10
2018-04-01T12:54:25.159Z,9.53
2018-04-01T12:56:52.018Z,10.63
2018-04-01T12:59:18.872Z,10.23
2018-04-01T13:01:45.761Z,11.53
2018-04-01T13:04:12.570Z,8.93
2018-04-01T13:06:39.423Z,9.97
2018-04-01T13:09:06.279Z,10.60
2018-04-01T13:11:33.139Z,10.60
2018-04-01T13:13:59.991Z,10.10
2018-04-01T13:16:26.934Z,8.97
2018-04-01T13:18:53.787Z,9.20
2018-04-01T13:21:20.733Z,8.67
2018-04-01T13:23:47.579Z,9.40
2018-04-01T13:26:14.517Z,9.10
2018-04-01T13:28:41.460Z,9.70
2018-04-01T13:31:08.315Z,9.60
2018-04-01T13:33:35.170Z,10.87
2018-04-01T13:36:02.026Z,14.50
2018-04-01T13:38:28.883Z,18.53
2018-04-01T13:40:55.769Z,11.73
2018-04-01T13:43:22.627Z,9.50
2018-04-01T13:45:49.550Z,9.17
2018-04-01T13:48:16.519Z,9.43
2018-04-01T13:50:43.447Z,7.60
2018-04-01T13:53:10.286Z,7.30
2018-04-01T13:55:37.145Z,6.53
2018-04-01T13:58:03.999Z,7.67
2018-04-01T14:00:30.845Z,9.60
2018-04-01T14:02:57.704Z,8.23
2018-04-01T14:05:24.628Z,7.77
2018-04-01T14:07:51.582Z,7.73
2018-04-01T14:10:18.438Z,7.83
2018-04-01T14:12:45.394Z,7.33
2018-04-01T14:15:12.237Z,6.77
2018-04-01T14:17:39.103Z,7.80
2018-04-01T14:20:05.957Z,11.43
2018-04-01T14:22:32.866Z,11.13
2018-04-01T14:24:59.728Z,8.83
2018-04-01T14:27:26.583Z,8.73
2018-04-01T14:29:53.430Z,8.27
2018-04-01T14:32:20.330Z,15.63
2018-04-01T14:34:47.177Z,24.17
2018-04-01T14:37:14.031Z,11.70
2018-04-01T14:39:40.883Z,11.23
2018-04-01T14:42:07.814Z,7.47
2018-04-01T14:44:34.743Z,7.70
2018-04-01T14:47:01.695Z,12.00
2018-04-01T14:49:28.631Z,6.00
2018-04-01T14:51:55.628Z,6.73
2018-04-01T14:54:22.524Z,5.63
2018-04-01T14:56:49.471Z,4.43
2018-04-01T14:59:16.320Z,7.20
2018-04-01T15:01:43.183Z,5.70
2018-04-01T15:04:10.060Z,5.07
2018-04-01T15:06:36.940Z,7.53
2018-04-01T15:09:03.784Z,7.63
2018-04-01T15:11:30.674Z,7.13
2018-04-01T15:13:57.567Z,6.10
2018-04-01T15:16:24.425Z,6.90
2018-04-01T15:18:51.358Z,5.47
2018-04-01T15:21:18.303Z,4.70
2018-04-01T15:23:45.243Z,5.67
2018-04-01T15:26:12.107Z,6.20
2018-04-01T15:28:38.944Z,5.80
2018-04-01T15:31:05.795Z,5.43
2018-04-01T15:33:32.639Z,4.73
2018-04-01T15:35:59.564Z,5.30
2018-04-01T15:38:26.412Z,7.30
2018-04-01T15:40:53.340Z,9.10
2018-04-01T15:43:20.192Z,5.50
2018-04-01T15:45:47.127Z,6.20
2018-04-01T15:48:13.992Z,5.60
2018-04-01T15:50:40.898Z,5.73
2018-04-01T15:53:07.778Z,6.03
2018-04-01T15:55:34.710Z,4.90
2018-04-01T15:58:01.652Z,5.93
2018-04-01T16:00:28.596Z,6.17
2018-04-01T16:02:55.582Z,4.50
2018-04-01T16:05:22.418Z,4.37
2018-04-01T16:07:49.267Z,4.60
2018-04-01T16:10:16.128Z,3.60
2018-04-01T16:12:43.001Z,4.67
2018-04-01T16:15:09.834Z,4.60
2018-04-01T16:17:36.694Z,7.03
2018-04-01T16:20:03.543Z,5.70
2018-04-01T16:22:30.486Z,3.90
2018-04-01T16:24:57.330Z,5.10
2018-04-01T16:27:24.192Z,4.60
2018-04-01T16:29:51.048Z,5.20
2018-04-01T16:32:17.890Z,5.87
2018-04-01T16:34:44.727Z,5.07
2018-04-01T16:37:11.582Z,4.40
2018-04-01T16:39:38.543Z,3.83
2018-04-01T16:42:05.275Z,3.80
2018-04-01T16:44:32.114Z,5.43
2018-04-01T16:46:59.065Z,4.97
2018-04-01T16:49:25.919Z,4.90
2018-04-01T16:51:52.859Z,4.70
2018-04-01T16:54:19.703Z,4.90
2018-04-01T16:56:46.686Z,5.60
2018-04-01T16:59:13.522Z,5.83
2018-04-01T17:01:40.374Z,5.63
2018-04-01T17:04:07.214Z,4.17
2018-04-01T17:06:34.067Z,4.50
2018-04-01T17:09:00.965Z,4.07
2018-04-01T17:11:27.822Z,6.20
2018-04-01T17:13:54.751Z,5.00
2018-04-01T17:16:21.607Z,10.70
2018-04-01T17:18:48.450Z,5.30
2018-04-01T17:21:15.300Z,5.60
2018-04-01T17:23:42.222Z,11.43
2018-04-01T17:26:09.070Z,5.80
2018-04-01T17:28:35.939Z,4.70
2018-04-01T17:31:02.790Z,4.87
2018-04-01T17:33:29.763Z,5.30
2018-04-01T17:35:56.611Z,4.80
2018-04-01T17:38:23.454Z,4.80
2018-04-01T17:40:50.539Z,4.23
2018-04-01T17:43:17.460Z,8.00
2018-04-01T17:45:44.339Z,4.27
2018-04-01T17:48:11.195Z,4.70
2018-04-01T17:50:38.123Z,6.80
2018-04-01T17:53:05.085Z,16.17
2018-04-01T17:55:31.962Z,30.30
2018-04-01T17:57:58.826Z,21.00
2018-04-01T18:00:25.683Z,20.13
2018-04-01T18:02:52.650Z,18.07
2018-04-01T18:05:19.506Z,22.70
2018-04-01T18:07:46.378Z,31.07
2018-04-01T18:10:13.224Z,43.80
2018-04-01T18:12:40.114Z,58.33
2018-04-01T18:15:06.976Z,62.57
2018-04-01T18:17:33.836Z,48.90
2018-04-01T18:20:00.747Z,41.27
2018-04-01T18:22:27.601Z,44.43
2018-04-01T18:24:54.454Z,32.33
2018-04-01T18:27:21.373Z,16.07
2018-04-01T18:29:48.450Z,19.50
2018-04-01T18:32:15.314Z,14.47
2018-04-01T18:34:42.216Z,11.17
2018-04-01T18:37:09.155Z,10.23
2018-04-01T18:39:36.098Z,14.80
2018-04-01T18:42:03.046Z,11.60
2018-04-01T18:44:29.964Z,9.60
2018-04-01T18:46:56.818Z,9.60
2018-04-01T18:49:23.666Z,10.23
2018-04-01T18:51:50.527Z,12.10
2018-04-01T18:54:17.460Z,8.20
2018-04-01T18:56:44.394Z,7.40
2018-04-01T18:59:11.255Z,7.03
2018-04-01T19:01:38.182Z,6.90
2018-04-01T19:04:05.030Z,13.37
2018-04-01T19:06:31.883Z,8.10
2018-04-01T19:08:58.819Z,8.00
2018-04-01T19:11:25.663Z,9.80
2018-04-01T19:13:52.570Z,10.57
2018-04-01T19:16:19.978Z,10.10
2018-04-01T19:18:47.414Z,11.27
2018-04-01T19:21:14.870Z,14.50
2018-04-01T19:23:42.268Z,12.77
2018-04-01T19:26:09.654Z,14.70
2018-04-01T19:28:37.102Z,16.37
2018-04-01T19:31:04.510Z,14.90
2018-04-01T19:33:31.911Z,19.67
2018-04-01T19:35:59.298Z,22.73
2018-04-01T19:38:26.694Z,24.00
2018-04-01T19:40:54.087Z,31.40
2018-04-01T19:43:21.490Z,33.27
2018-04-01T19:45:48.875Z,35.20
2018-04-01T19:48:16.332Z,35.00
2018-04-01T19:50:43.741Z,31.53
2018-04-01T19:53:11.128Z,34.40
2018-04-01T19:55:38.524Z,26.37
2018-04-01T19:58:05.920Z,24.90
2018-04-01T20:00:33.338Z,26.53
2018-04-01T20:03:00.733Z,24.70
2018-04-01T20:05:28.138Z,24.97
2018-04-01T20:07:55.597Z,22.43
2018-04-01T20:10:22.986Z,20.67
2018-04-01T20:12:50.408Z,18.90
2018-04-01T20:15:17.789Z,18.67
2018-04-01T20:17:45.203Z,18.30
2018-04-01T20:20:12.601Z,17.20
2018-04-01T20:22:40.011Z,17.20
2018-04-01T20:25:07.407Z,16.47
2018-04-01T20:27:34.870Z,14.83
2018-04-01T20:30:02.260Z,15.80
2018-04-01T20:32:29.731Z,15.60
2018-04-01T20:34:57.155Z,15.57
2018-04-01T20:37:24.547Z,13.97
2018-04-01T20:39:52.003Z,14.43
2018-04-01T20:42:19.386Z,15.40
2018-04-01T20:44:46.814Z,14.30
2018-04-01T20:47:14.207Z,13.57
2018-04-01T20:49:41.603Z,12.63
2018-04-01T20:52:09.075Z,13.20
2018-04-01T20:54:37.139Z,14.03
2018-04-01T20:57:04.512Z,14.40
2018-04-01T20:59:31.911Z,13.10
2018-04-01T21:01:59.306Z,11.83
2018-04-01T21:04:26.699Z,13.87
2018-04-01T21:06:54.118Z,13.07
2018-04-01T21:09:21.526Z,14.47
2018-04-01T21:11:48.924Z,15.03
2018-04-01T21:14:16.324Z,15.50
2018-04-01T21:16:43.739Z,16.97
2018-04-01T21:19:11.204Z,17.27
2018-04-01T21:21:38.590Z,19.70
2018-04-01T21:24:06.002Z,21.40
2018-04-01T21:26:33.468Z,19.67
2018-04-01T21:29:00.895Z,19.20
2018-04-01T21:31:28.284Z,18.97
2018-04-01T21:33:55.682Z,19.50
2018-04-01T21:36:23.155Z,18.97
2018-04-01T21:38:50.552Z,17.90
2018-04-01T21:41:17.938Z,17.93
2018-04-01T21:43:45.342Z,16.40
2018-04-01T21:46:12.748Z,17.93
2018-04-01T21:48:40.159Z,16.77
2018-04-01T21:51:07.550Z,15.87
2018-04-01T21:53:34.953Z,16.30
2018-04-01T21:56:02.351Z,17.10
2018-04-01T21:58:29.774Z,17.90
2018-04-01T22:00:57.170Z,18.53
2018-04-01T22:03:24.579Z,17.47
2018-04-01T22:05:51.962Z,18.83
2018-04-01T22:08:19.363Z,17.50
2018-04-01T22:10:46.786Z,18.17
2018-04-01T22:13:14.178Z,17.90
2018-04-01T22:15:41.599Z,19.10
2018-04-01T22:18:09.431Z,19.53
2018-04-01T22:20:36.932Z,19.77
2018-04-01T22:23:17.475Z,20.70
2018-04-01T22:25:44.876Z,22.00
2018-04-01T22:28:12.286Z,22.93
2018-04-01T22:30:39.683Z,24.23
2018-04-01T22:33:07.164Z,26.00
2018-04-01T22:35:34.619Z,25.90
2018-04-01T22:38:02.067Z,27.10
2018-04-01T22:40:29.462Z,29.07
2018-04-01T22:42:56.879Z,29.33
2018-04-01T22:45:24.281Z,29.40
2018-04-01T22:47:51.670Z,30.20
2018-04-01T22:50:19.086Z,29.83
2018-04-01T22:52:46.488Z,30.07
2018-04-01T22:55:13.894Z,32.40
2018-04-01T22:57:41.294Z,30.87
2018-04-01T23:00:08.695Z,29.80
2018-04-01T23:02:36.120Z,35.00
2018-04-01T23:05:03.513Z,33.73
2018-04-01T23:07:30.898Z,36.20
2018-04-01T23:09:58.297Z,36.50
2018-04-01T23:12:25.697Z,38.87
2018-04-01T23:14:53.108Z,38.30
2018-04-01T23:17:20.499Z,36.80
2018-04-01T23:19:48.003Z,38.10
2018-04-01T23:22:15.390Z,35.27
2018-04-01T23:24:42.782Z,34.00
2018-04-01T23:27:10.183Z,32.23
2018-04-01T23:29:37.626Z,31.13
2018-04-01T23:32:05.087Z,30.10
2018-04-01T23:34:32.535Z,29.13
2018-04-01T23:37:00.854Z,27.07
2018-04-01T23:39:28.270Z,28.50
2018-04-01T23:41:55.667Z,26.47
2018-04-01T23:44:23.058Z,24.70
2018-04-01T23:46:50.442Z,22.70
2018-04-01T23:49:17.882Z,23.07
2018-04-01T23:51:45.275Z,24.37
2018-04-01T23:54:12.679Z,22.60
2018-04-01T23:56:40.153Z,23.70
2018-04-01T23:59:08.315Z,22.00
